sensor_id;sensor_type;location;lat;lon;timestamp;P1;durP1;ratioP1;P2;durP2;ratioP2
45206;SDS011;30950;53.086;21.576;2023-03-31T00:00:27;30.98;;;23.90;;
45206;SDS011;30950;53.086;21.576;2023-03-31T00:03:10;35.00;;;27.23;;
45206;SDS011;30950;53.086;21.576;2023-03-31T00:05:39;41.88;;;28.23;;
45206;SDS011;30950;53.086;21.576;2023-03-31T00:08:06;34.90;;;26.90;;
45206;SDS011;30950;53.086;21.576;2023-03-31T00:10:35;40.08;;;28.33;;
45206;SDS011;30950;53.086;21.576;2023-03-31T00:13:02;38.50;;;29.25;;
45206;SDS011;30950;53.086;21.576;2023-03-31T00:15:29;39.63;;;28.95;;
45206;SDS011;30950;53.086;21.576;2023-03-31T00:17:56;38.10;;;29.83;;
45206;SDS011;30950;53.086;21.576;2023-03-31T00:20:26;40.40;;;30.02;;
45206;SDS011;30950;53.086;21.576;2023-03-31T00:22:53;43.80;;;30.17;;
45206;SDS011;30950;53.086;21.576;2023-03-31T00:25:23;41.17;;;30.83;;
45206;SDS011;30950;53.086;21.576;2023-03-31T00:27:50;39.72;;;31.02;;
45206;SDS011;30950;53.086;21.576;2023-03-31T00:30:18;38.75;;;30.00;;
45206;SDS011;30950;53.086;21.576;2023-03-31T00:32:46;43.72;;;31.60;;
45206;SDS011;30950;53.086;21.576;2023-03-31T00:35:13;42.03;;;29.85;;
45206;SDS011;30950;53.086;21.576;2023-03-31T00:37:40;39.95;;;29.30;;
45206;SDS011;30950;53.086;21.576;2023-03-31T00:40:09;37.10;;;29.70;;
45206;SDS011;30950;53.086;21.576;2023-03-31T00:42:41;37.72;;;30.00;;
45206;SDS011;30950;53.086;21.576;2023-03-31T00:47:41;37.33;;;28.85;;
45206;SDS011;30950;53.086;21.576;2023-03-31T00:50:19;37.95;;;28.10;;
45206;SDS011;30950;53.086;21.576;2023-03-31T00:52:50;36.13;;;28.13;;
45206;SDS011;30950;53.086;21.576;2023-03-31T00:55:22;36.60;;;30.33;;
45206;SDS011;30950;53.086;21.576;2023-03-31T00:58:00;38.22;;;28.52;;
45206;SDS011;30950;53.086;21.576;2023-03-31T01:00:30;39.70;;;28.88;;
45206;SDS011;30950;53.086;21.576;2023-03-31T01:02:58;34.95;;;27.42;;
45206;SDS011;30950;53.086;21.576;2023-03-31T01:05:33;31.95;;;26.40;;
45206;SDS011;30950;53.086;21.576;2023-03-31T01:08:06;30.70;;;25.23;;
45206;SDS011;30950;53.086;21.576;2023-03-31T01:10:36;30.65;;;24.50;;
45206;SDS011;30950;53.086;21.576;2023-03-31T01:13:08;26.10;;;22.50;;
45206;SDS011;30950;53.086;21.576;2023-03-31T01:15:37;30.08;;;22.70;;
45206;SDS011;30950;53.086;21.576;2023-03-31T01:18:05;32.35;;;22.05;;
45206;SDS011;30950;53.086;21.576;2023-03-31T01:46:40;22.90;;;18.48;;
45206;SDS011;30950;53.086;21.576;2023-03-31T01:49:22;23.02;;;17.27;;
45206;SDS011;30950;53.086;21.576;2023-03-31T01:52:06;19.42;;;16.10;;
45206;SDS011;30950;53.086;21.576;2023-03-31T01:54:43;18.38;;;15.25;;
45206;SDS011;30950;53.086;21.576;2023-03-31T01:57:21;17.17;;;15.10;;
45206;SDS011;30950;53.086;21.576;2023-03-31T02:02:56;17.73;;;13.82;;
45206;SDS011;30950;53.086;21.576;2023-03-31T02:05:34;18.65;;;13.77;;
45206;SDS011;30950;53.086;21.576;2023-03-31T02:08:05;16.55;;;13.48;;
45206;SDS011;30950;53.086;21.576;2023-03-31T02:10:36;21.55;;;14.05;;
45206;SDS011;30950;53.086;21.576;2023-03-31T02:13:06;14.52;;;11.98;;
45206;SDS011;30950;53.086;21.576;2023-03-31T02:15:41;14.80;;;11.93;;
45206;SDS011;30950;53.086;21.576;2023-03-31T02:18:13;14.77;;;11.88;;
45206;SDS011;30950;53.086;21.576;2023-03-31T02:20:45;13.88;;;11.75;;
45206;SDS011;30950;53.086;21.576;2023-03-31T02:23:17;15.90;;;12.05;;
45206;SDS011;30950;53.086;21.576;2023-03-31T02:25:50;13.90;;;11.65;;
45206;SDS011;30950;53.086;21.576;2023-03-31T02:28:23;15.43;;;11.02;;
45206;SDS011;30950;53.086;21.576;2023-03-31T02:33:20;17.33;;;11.75;;
45206;SDS011;30950;53.086;21.576;2023-03-31T02:35:47;14.05;;;10.20;;
45206;SDS011;30950;53.086;21.576;2023-03-31T02:38:14;11.77;;;9.68;;
45206;SDS011;30950;53.086;21.576;2023-03-31T02:40:42;12.63;;;10.18;;
45206;SDS011;30950;53.086;21.576;2023-03-31T02:43:09;11.82;;;9.93;;
45206;SDS011;30950;53.086;21.576;2023-03-31T02:48:21;13.00;;;10.35;;
45206;SDS011;30950;53.086;21.576;2023-03-31T02:53:50;15.15;;;10.13;;
45206;SDS011;30950;53.086;21.576;2023-03-31T02:59:31;12.25;;;9.05;;
45206;SDS011;30950;53.086;21.576;2023-03-31T03:02:04;11.63;;;9.93;;
45206;SDS011;30950;53.086;21.576;2023-03-31T03:04:43;10.82;;;8.70;;
45206;SDS011;30950;53.086;21.576;2023-03-31T03:07:50;10.23;;;8.70;;
45206;SDS011;30950;53.086;21.576;2023-03-31T03:10:23;10.48;;;8.25;;
45206;SDS011;30950;53.086;21.576;2023-03-31T03:15:46;9.02;;;7.30;;
45206;SDS011;30950;53.086;21.576;2023-03-31T03:18:22;10.07;;;8.15;;
45206;SDS011;30950;53.086;21.576;2023-03-31T03:20:49;10.02;;;8.10;;
45206;SDS011;30950;53.086;21.576;2023-03-31T03:23:17;9.57;;;7.90;;
45206;SDS011;30950;53.086;21.576;2023-03-31T03:25:44;9.77;;;8.10;;
45206;SDS011;30950;53.086;21.576;2023-03-31T03:28:12;7.82;;;7.03;;
45206;SDS011;30950;53.086;21.576;2023-03-31T03:30:39;8.27;;;7.13;;
45206;SDS011;30950;53.086;21.576;2023-03-31T03:33:07;8.85;;;6.78;;
45206;SDS011;30950;53.086;21.576;2023-03-31T03:35:35;8.23;;;6.75;;
45206;SDS011;30950;53.086;21.576;2023-03-31T03:38:02;9.10;;;6.28;;
45206;SDS011;30950;53.086;21.576;2023-03-31T03:40:29;8.48;;;6.15;;
45206;SDS011;30950;53.086;21.576;2023-03-31T03:42:57;9.18;;;6.10;;
45206;SDS011;30950;53.086;21.576;2023-03-31T03:45:24;9.82;;;7.20;;
45206;SDS011;30950;53.086;21.576;2023-03-31T03:47:51;7.13;;;5.65;;
45206;SDS011;30950;53.086;21.576;2023-03-31T03:50:19;9.90;;;5.93;;
45206;SDS011;30950;53.086;21.576;2023-03-31T03:52:46;8.95;;;5.93;;
45206;SDS011;30950;53.086;21.576;2023-03-31T03:55:13;9.23;;;6.00;;
45206;SDS011;30950;53.086;21.576;2023-03-31T03:57:40;6.88;;;5.68;;
45206;SDS011;30950;53.086;21.576;2023-03-31T04:00:07;7.43;;;5.68;;
45206;SDS011;30950;53.086;21.576;2023-03-31T04:02:38;8.07;;;6.32;;
45206;SDS011;30950;53.086;21.576;2023-03-31T04:05:06;7.25;;;5.63;;
45206;SDS011;30950;53.086;21.576;2023-03-31T04:07:34;7.47;;;6.10;;
45206;SDS011;30950;53.086;21.576;2023-03-31T04:10:01;8.32;;;5.90;;
45206;SDS011;30950;53.086;21.576;2023-03-31T04:12:28;7.20;;;5.60;;
45206;SDS011;30950;53.086;21.576;2023-03-31T04:14:55;9.20;;;6.20;;
45206;SDS011;30950;53.086;21.576;2023-03-31T04:17:23;8.50;;;6.38;;
45206;SDS011;30950;53.086;21.576;2023-03-31T04:20:07;8.75;;;6.50;;
45206;SDS011;30950;53.086;21.576;2023-03-31T04:22:37;9.40;;;7.13;;
45206;SDS011;30950;53.086;21.576;2023-03-31T04:25:07;9.43;;;7.32;;
45206;SDS011;30950;53.086;21.576;2023-03-31T04:27:50;9.13;;;7.55;;
45206;SDS011;30950;53.086;21.576;2023-03-31T04:30:21;9.68;;;7.63;;
45206;SDS011;30950;53.086;21.576;2023-03-31T04:32:50;9.98;;;8.48;;
45206;SDS011;30950;53.086;21.576;2023-03-31T04:35:20;9.38;;;8.25;;
45206;SDS011;30950;53.086;21.576;2023-03-31T04:37:50;10.27;;;8.68;;
45206;SDS011;30950;53.086;21.576;2023-03-31T04:40:24;10.05;;;8.82;;
45206;SDS011;30950;53.086;21.576;2023-03-31T04:42:52;10.65;;;9.25;;
45206;SDS011;30950;53.086;21.576;2023-03-31T04:45:19;12.40;;;9.05;;
45206;SDS011;30950;53.086;21.576;2023-03-31T04:47:46;11.18;;;9.88;;
45206;SDS011;30950;53.086;21.576;2023-03-31T04:50:13;12.30;;;10.20;;
45206;SDS011;30950;53.086;21.576;2023-03-31T04:52:43;13.82;;;9.35;;
45206;SDS011;30950;53.086;21.576;2023-03-31T04:55:10;10.07;;;8.85;;
45206;SDS011;30950;53.086;21.576;2023-03-31T04:57:37;11.82;;;8.60;;
45206;SDS011;30950;53.086;21.576;2023-03-31T05:00:04;10.43;;;8.93;;
45206;SDS011;30950;53.086;21.576;2023-03-31T05:02:33;14.90;;;10.95;;
45206;SDS011;30950;53.086;21.576;2023-03-31T05:05:01;65.40;;;30.17;;
45206;SDS011;30950;53.086;21.576;2023-03-31T05:07:28;16.92;;;11.57;;
45206;SDS011;30950;53.086;21.576;2023-03-31T05:09:55;10.50;;;9.13;;
45206;SDS011;30950;53.086;21.576;2023-03-31T05:12:22;12.82;;;8.60;;
45206;SDS011;30950;53.086;21.576;2023-03-31T05:14:51;15.38;;;8.38;;
45206;SDS011;30950;53.086;21.576;2023-03-31T05:17:18;12.60;;;8.88;;
45206;SDS011;30950;53.086;21.576;2023-03-31T05:19:45;11.88;;;9.13;;
45206;SDS011;30950;53.086;21.576;2023-03-31T05:22:13;13.60;;;9.75;;
45206;SDS011;30950;53.086;21.576;2023-03-31T05:24:46;12.15;;;9.10;;
45206;SDS011;30950;53.086;21.576;2023-03-31T05:27:14;13.27;;;10.60;;
45206;SDS011;30950;53.086;21.576;2023-03-31T05:29:42;14.00;;;10.82;;
45206;SDS011;30950;53.086;21.576;2023-03-31T05:32:09;13.30;;;11.15;;
45206;SDS011;30950;53.086;21.576;2023-03-31T05:34:36;12.55;;;10.65;;
45206;SDS011;30950;53.086;21.576;2023-03-31T05:37:04;16.77;;;11.70;;
45206;SDS011;30950;53.086;21.576;2023-03-31T05:39:31;13.90;;;12.43;;
45206;SDS011;30950;53.086;21.576;2023-03-31T05:41:59;12.13;;;10.93;;
45206;SDS011;30950;53.086;21.576;2023-03-31T05:44:26;17.25;;;12.82;;
45206;SDS011;30950;53.086;21.576;2023-03-31T05:46:53;16.20;;;12.55;;
45206;SDS011;30950;53.086;21.576;2023-03-31T05:49:21;21.50;;;12.75;;
45206;SDS011;30950;53.086;21.576;2023-03-31T05:51:48;22.70;;;13.90;;
45206;SDS011;30950;53.086;21.576;2023-03-31T05:54:16;21.83;;;13.52;;
45206;SDS011;30950;53.086;21.576;2023-03-31T05:56:43;18.13;;;14.07;;
45206;SDS011;30950;53.086;21.576;2023-03-31T05:59:10;16.42;;;13.68;;
45206;SDS011;30950;53.086;21.576;2023-03-31T06:01:38;15.10;;;13.43;;
45206;SDS011;30950;53.086;21.576;2023-03-31T06:04:08;18.13;;;14.45;;
45206;SDS011;30950;53.086;21.576;2023-03-31T06:06:35;16.55;;;14.80;;
45206;SDS011;30950;53.086;21.576;2023-03-31T06:09:04;17.20;;;14.43;;
45206;SDS011;30950;53.086;21.576;2023-03-31T06:11:32;23.20;;;14.18;;
45206;SDS011;30950;53.086;21.576;2023-03-31T06:13:59;17.08;;;13.80;;
45206;SDS011;30950;53.086;21.576;2023-03-31T06:16:26;16.27;;;14.13;;
45206;SDS011;30950;53.086;21.576;2023-03-31T06:18:54;19.98;;;15.45;;
45206;SDS011;30950;53.086;21.576;2023-03-31T06:21:22;18.38;;;15.43;;
45206;SDS011;30950;53.086;21.576;2023-03-31T06:23:49;21.17;;;15.27;;
45206;SDS011;30950;53.086;21.576;2023-03-31T06:26:20;18.48;;;14.88;;
45206;SDS011;30950;53.086;21.576;2023-03-31T06:28:49;21.05;;;16.33;;
45206;SDS011;30950;53.086;21.576;2023-03-31T06:31:20;20.70;;;16.50;;
45206;SDS011;30950;53.086;21.576;2023-03-31T06:33:49;18.63;;;15.88;;
45206;SDS011;30950;53.086;21.576;2023-03-31T06:36:17;20.75;;;15.82;;
45206;SDS011;30950;53.086;21.576;2023-03-31T06:38:47;22.58;;;16.30;;
45206;SDS011;30950;53.086;21.576;2023-03-31T06:41:16;31.10;;;25.45;;
45206;SDS011;30950;53.086;21.576;2023-03-31T06:43:44;17.63;;;14.90;;
45206;SDS011;30950;53.086;21.576;2023-03-31T06:46:12;21.08;;;17.02;;
45206;SDS011;30950;53.086;21.576;2023-03-31T06:48:39;22.25;;;15.60;;
45206;SDS011;30950;53.086;21.576;2023-03-31T06:51:08;21.65;;;15.90;;
45206;SDS011;30950;53.086;21.576;2023-03-31T06:53:36;18.50;;;14.95;;
45206;SDS011;30950;53.086;21.576;2023-03-31T06:56:04;20.40;;;16.27;;
45206;SDS011;30950;53.086;21.576;2023-03-31T06:58:32;18.67;;;15.23;;
45206;SDS011;30950;53.086;21.576;2023-03-31T07:01:01;19.27;;;15.75;;
45206;SDS011;30950;53.086;21.576;2023-03-31T07:03:30;18.17;;;15.30;;
45206;SDS011;30950;53.086;21.576;2023-03-31T07:05:58;15.27;;;13.07;;
45206;SDS011;30950;53.086;21.576;2023-03-31T07:08:25;16.40;;;14.68;;
45206;SDS011;30950;53.086;21.576;2023-03-31T07:10:57;18.38;;;15.80;;
45206;SDS011;30950;53.086;21.576;2023-03-31T07:13:25;18.50;;;15.60;;
45206;SDS011;30950;53.086;21.576;2023-03-31T07:15:53;21.05;;;18.25;;
45206;SDS011;30950;53.086;21.576;2023-03-31T07:18:21;19.17;;;15.35;;
45206;SDS011;30950;53.086;21.576;2023-03-31T07:20:52;17.17;;;14.88;;
45206;SDS011;30950;53.086;21.576;2023-03-31T07:23:19;20.02;;;16.27;;
45206;SDS011;30950;53.086;21.576;2023-03-31T07:25:46;19.20;;;15.95;;
45206;SDS011;30950;53.086;21.576;2023-03-31T07:28:14;21.92;;;17.50;;
45206;SDS011;30950;53.086;21.576;2023-03-31T07:30:42;20.77;;;18.48;;
45206;SDS011;30950;53.086;21.576;2023-03-31T07:33:09;20.52;;;17.80;;
45206;SDS011;30950;53.086;21.576;2023-03-31T07:35:37;22.15;;;17.70;;
45206;SDS011;30950;53.086;21.576;2023-03-31T07:38:06;35.42;;;26.45;;
45206;SDS011;30950;53.086;21.576;2023-03-31T07:40:34;22.85;;;17.95;;
45206;SDS011;30950;53.086;21.576;2023-03-31T07:43:02;24.05;;;19.55;;
45206;SDS011;30950;53.086;21.576;2023-03-31T07:45:29;33.55;;;23.83;;
45206;SDS011;30950;53.086;21.576;2023-03-31T07:47:57;30.77;;;24.30;;
45206;SDS011;30950;53.086;21.576;2023-03-31T07:50:24;22.15;;;17.80;;
45206;SDS011;30950;53.086;21.576;2023-03-31T07:52:54;20.75;;;15.88;;
45206;SDS011;30950;53.086;21.576;2023-03-31T07:55:21;18.00;;;15.90;;
45206;SDS011;30950;53.086;21.576;2023-03-31T07:57:49;19.65;;;15.40;;
45206;SDS011;30950;53.086;21.576;2023-03-31T08:00:17;25.25;;;20.00;;
45206;SDS011;30950;53.086;21.576;2023-03-31T08:02:45;23.10;;;18.70;;
45206;SDS011;30950;53.086;21.576;2023-03-31T08:05:14;27.13;;;19.58;;
45206;SDS011;30950;53.086;21.576;2023-03-31T08:07:44;20.48;;;16.25;;
45206;SDS011;30950;53.086;21.576;2023-03-31T08:10:14;24.58;;;16.30;;
45206;SDS011;30950;53.086;21.576;2023-03-31T08:12:44;20.15;;;14.52;;
45206;SDS011;30950;53.086;21.576;2023-03-31T08:15:12;26.98;;;19.05;;
45206;SDS011;30950;53.086;21.576;2023-03-31T08:17:39;20.25;;;15.82;;
45206;SDS011;30950;53.086;21.576;2023-03-31T08:20:07;23.52;;;17.05;;
45206;SDS011;30950;53.086;21.576;2023-03-31T08:22:36;29.63;;;21.10;;
45206;SDS011;30950;53.086;21.576;2023-03-31T08:25:04;21.50;;;15.70;;
45206;SDS011;30950;53.086;21.576;2023-03-31T08:27:34;18.73;;;15.40;;
45206;SDS011;30950;53.086;21.576;2023-03-31T08:30:04;22.52;;;16.70;;
45206;SDS011;30950;53.086;21.576;2023-03-31T08:32:33;20.08;;;15.48;;
45206;SDS011;30950;53.086;21.576;2023-03-31T08:35:01;19.70;;;15.80;;
45206;SDS011;30950;53.086;21.576;2023-03-31T08:37:29;23.23;;;18.05;;
45206;SDS011;30950;53.086;21.576;2023-03-31T08:39:57;21.15;;;15.93;;
45206;SDS011;30950;53.086;21.576;2023-03-31T08:47:28;24.45;;;17.67;;
45206;SDS011;30950;53.086;21.576;2023-03-31T08:49:58;20.85;;;15.63;;
45206;SDS011;30950;53.086;21.576;2023-03-31T08:52:31;23.27;;;17.23;;
45206;SDS011;30950;53.086;21.576;2023-03-31T08:55:09;23.33;;;16.38;;
45206;SDS011;30950;53.086;21.576;2023-03-31T09:00:22;25.25;;;15.20;;
45206;SDS011;30950;53.086;21.576;2023-03-31T09:02:55;19.00;;;13.55;;
45206;SDS011;30950;53.086;21.576;2023-03-31T09:08:32;17.95;;;14.32;;
45206;SDS011;30950;53.086;21.576;2023-03-31T09:13:51;18.45;;;12.00;;
45206;SDS011;30950;53.086;21.576;2023-03-31T09:16:37;19.92;;;14.07;;
45206;SDS011;30950;53.086;21.576;2023-03-31T09:19:16;16.52;;;12.63;;
45206;SDS011;30950;53.086;21.576;2023-03-31T09:21:56;18.27;;;14.13;;
45206;SDS011;30950;53.086;21.576;2023-03-31T09:24:28;17.63;;;12.93;;
45206;SDS011;30950;53.086;21.576;2023-03-31T09:27:06;19.73;;;13.93;;
45206;SDS011;30950;53.086;21.576;2023-03-31T09:32:29;19.58;;;13.27;;
45206;SDS011;30950;53.086;21.576;2023-03-31T09:35:11;17.80;;;13.95;;
45206;SDS011;30950;53.086;21.576;2023-03-31T09:37:51;18.85;;;13.18;;
45206;SDS011;30950;53.086;21.576;2023-03-31T09:40:21;23.27;;;15.38;;
45206;SDS011;30950;53.086;21.576;2023-03-31T09:42:50;18.83;;;13.85;;
45206;SDS011;30950;53.086;21.576;2023-03-31T09:45:31;21.50;;;15.30;;
45206;SDS011;30950;53.086;21.576;2023-03-31T09:48:11;17.85;;;13.07;;
45206;SDS011;30950;53.086;21.576;2023-03-31T09:50:44;21.17;;;13.68;;
45206;SDS011;30950;53.086;21.576;2023-03-31T09:53:21;18.05;;;14.50;;
45206;SDS011;30950;53.086;21.576;2023-03-31T09:55:54;18.92;;;14.93;;
45206;SDS011;30950;53.086;21.576;2023-03-31T09:58:26;21.08;;;15.80;;
45206;SDS011;30950;53.086;21.576;2023-03-31T10:01:01;20.73;;;15.25;;
45206;SDS011;30950;53.086;21.576;2023-03-31T10:03:32;19.27;;;14.50;;
45206;SDS011;30950;53.086;21.576;2023-03-31T10:06:13;18.55;;;13.60;;
45206;SDS011;30950;53.086;21.576;2023-03-31T10:08:42;15.32;;;12.50;;
45206;SDS011;30950;53.086;21.576;2023-03-31T10:11:23;21.33;;;15.32;;
45206;SDS011;30950;53.086;21.576;2023-03-31T10:14:00;16.25;;;13.30;;
45206;SDS011;30950;53.086;21.576;2023-03-31T10:16:31;19.55;;;15.73;;
45206;SDS011;30950;53.086;21.576;2023-03-31T10:19:13;18.00;;;13.68;;
45206;SDS011;30950;53.086;21.576;2023-03-31T10:21:45;19.35;;;14.63;;
45206;SDS011;30950;53.086;21.576;2023-03-31T10:24:17;19.35;;;14.70;;
45206;SDS011;30950;53.086;21.576;2023-03-31T10:26:47;23.05;;;17.02;;
45206;SDS011;30950;53.086;21.576;2023-03-31T10:29:17;21.58;;;16.70;;
45206;SDS011;30950;53.086;21.576;2023-03-31T10:31:51;19.88;;;16.63;;
45206;SDS011;30950;53.086;21.576;2023-03-31T10:34:18;22.30;;;16.23;;
45206;SDS011;30950;53.086;21.576;2023-03-31T10:36:48;17.23;;;15.35;;
45206;SDS011;30950;53.086;21.576;2023-03-31T10:39:20;20.33;;;14.80;;
45206;SDS011;30950;53.086;21.576;2023-03-31T10:41:55;17.70;;;14.25;;
45206;SDS011;30950;53.086;21.576;2023-03-31T10:44:29;21.67;;;15.55;;
45206;SDS011;30950;53.086;21.576;2023-03-31T10:49:39;22.35;;;16.20;;
45206;SDS011;30950;53.086;21.576;2023-03-31T10:52:27;19.10;;;15.85;;
45206;SDS011;30950;53.086;21.576;2023-03-31T10:54:57;21.83;;;15.27;;
45206;SDS011;30950;53.086;21.576;2023-03-31T10:57:30;20.05;;;15.05;;
45206;SDS011;30950;53.086;21.576;2023-03-31T11:00:12;22.23;;;16.17;;
45206;SDS011;30950;53.086;21.576;2023-03-31T11:05:50;25.80;;;16.30;;
45206;SDS011;30950;53.086;21.576;2023-03-31T11:08:40;21.30;;;15.88;;
45206;SDS011;30950;53.086;21.576;2023-03-31T11:16:52;18.58;;;14.80;;
45206;SDS011;30950;53.086;21.576;2023-03-31T11:25:14;17.90;;;13.52;;
45206;SDS011;30950;53.086;21.576;2023-03-31T11:31:31;21.98;;;14.18;;
45206;SDS011;30950;53.086;21.576;2023-03-31T11:33:44;21.33;;;14.02;;
45206;SDS011;30950;53.086;21.576;2023-03-31T11:36:31;21.02;;;14.48;;
45206;SDS011;30950;53.086;21.576;2023-03-31T11:42:33;16.35;;;11.68;;
45206;SDS011;30950;53.086;21.576;2023-03-31T11:44:45;19.55;;;12.57;;
45206;SDS011;30950;53.086;21.576;2023-03-31T11:47:19;21.00;;;13.35;;
45206;SDS011;30950;53.086;21.576;2023-03-31T11:52:19;17.40;;;12.15;;
45206;SDS011;30950;53.086;21.576;2023-03-31T11:54:57;20.52;;;13.07;;
45206;SDS011;30950;53.086;21.576;2023-03-31T11:57:43;17.08;;;11.68;;
45206;SDS011;30950;53.086;21.576;2023-03-31T12:00:29;13.75;;;9.73;;
45206;SDS011;30950;53.086;21.576;2023-03-31T12:03:08;18.60;;;13.52;;
45206;SDS011;30950;53.086;21.576;2023-03-31T12:05:41;16.58;;;11.38;;
45206;SDS011;30950;53.086;21.576;2023-03-31T12:08:14;14.13;;;11.32;;
45206;SDS011;30950;53.086;21.576;2023-03-31T12:10:50;14.95;;;11.45;;
45206;SDS011;30950;53.086;21.576;2023-03-31T12:16:19;15.55;;;12.00;;
45206;SDS011;30950;53.086;21.576;2023-03-31T12:21:55;17.92;;;11.43;;
45206;SDS011;30950;53.086;21.576;2023-03-31T12:24:45;17.88;;;10.90;;
45206;SDS011;30950;53.086;21.576;2023-03-31T12:30:12;14.90;;;10.82;;
45206;SDS011;30950;53.086;21.576;2023-03-31T12:32:46;13.55;;;9.65;;
45206;SDS011;30950;53.086;21.576;2023-03-31T12:35:34;15.63;;;9.75;;
45206;SDS011;30950;53.086;21.576;2023-03-31T12:44:06;17.88;;;10.52;;
45206;SDS011;30950;53.086;21.576;2023-03-31T12:57:25;18.08;;;9.77;;
45206;SDS011;30950;53.086;21.576;2023-03-31T13:02:36;12.05;;;7.70;;
45206;SDS011;30950;53.086;21.576;2023-03-31T13:08:08;13.75;;;9.25;;
45206;SDS011;30950;53.086;21.576;2023-03-31T13:10:51;13.48;;;8.85;;
45206;SDS011;30950;53.086;21.576;2023-03-31T13:13:23;15.70;;;8.57;;
45206;SDS011;30950;53.086;21.576;2023-03-31T13:15:52;14.63;;;8.43;;
45206;SDS011;30950;53.086;21.576;2023-03-31T13:18:22;12.45;;;8.75;;
45206;SDS011;30950;53.086;21.576;2023-03-31T13:21:02;11.60;;;7.93;;
45206;SDS011;30950;53.086;21.576;2023-03-31T13:23:35;11.25;;;7.07;;
45206;SDS011;30950;53.086;21.576;2023-03-31T13:26:03;11.48;;;7.28;;
45206;SDS011;30950;53.086;21.576;2023-03-31T13:28:33;12.80;;;7.60;;
45206;SDS011;30950;53.086;21.576;2023-03-31T13:31:09;16.67;;;8.90;;
45206;SDS011;30950;53.086;21.576;2023-03-31T13:33:50;13.32;;;7.68;;
45206;SDS011;30950;53.086;21.576;2023-03-31T13:45:02;12.93;;;8.05;;
45206;SDS011;30950;53.086;21.576;2023-03-31T13:56:11;12.73;;;7.47;;
45206;SDS011;30950;53.086;21.576;2023-03-31T14:02:17;11.80;;;7.72;;
45206;SDS011;30950;53.086;21.576;2023-03-31T14:07:49;12.52;;;6.30;;
45206;SDS011;30950;53.086;21.576;2023-03-31T14:10:25;8.43;;;5.40;;
45206;SDS011;30950;53.086;21.576;2023-03-31T14:13:04;12.55;;;6.45;;
45206;SDS011;30950;53.086;21.576;2023-03-31T14:15:32;11.63;;;6.70;;
45206;SDS011;30950;53.086;21.576;2023-03-31T14:18:03;12.68;;;6.40;;
45206;SDS011;30950;53.086;21.576;2023-03-31T14:20:47;9.07;;;5.75;;
45206;SDS011;30950;53.086;21.576;2023-03-31T14:23:19;10.18;;;5.88;;
45206;SDS011;30950;53.086;21.576;2023-03-31T14:37:01;11.23;;;6.05;;
45206;SDS011;30950;53.086;21.576;2023-03-31T14:39:35;12.18;;;6.47;;
45206;SDS011;30950;53.086;21.576;2023-03-31T14:42:10;10.70;;;6.22;;
45206;SDS011;30950;53.086;21.576;2023-03-31T14:44:47;14.45;;;7.00;;
45206;SDS011;30950;53.086;21.576;2023-03-31T14:47:22;11.80;;;7.25;;
45206;SDS011;30950;53.086;21.576;2023-03-31T14:52:49;11.88;;;7.97;;
45206;SDS011;30950;53.086;21.576;2023-03-31T14:55:21;10.07;;;6.55;;
45206;SDS011;30950;53.086;21.576;2023-03-31T14:57:54;13.05;;;7.25;;
45206;SDS011;30950;53.086;21.576;2023-03-31T15:00:29;11.48;;;7.55;;
45206;SDS011;30950;53.086;21.576;2023-03-31T15:02:58;12.10;;;7.93;;
45206;SDS011;30950;53.086;21.576;2023-03-31T15:05:31;14.63;;;8.50;;
45206;SDS011;30950;53.086;21.576;2023-03-31T15:08:11;15.10;;;7.85;;
45206;SDS011;30950;53.086;21.576;2023-03-31T15:10:42;9.98;;;6.97;;
45206;SDS011;30950;53.086;21.576;2023-03-31T15:13:15;13.85;;;7.50;;
45206;SDS011;30950;53.086;21.576;2023-03-31T15:15:47;10.98;;;7.20;;
45206;SDS011;30950;53.086;21.576;2023-03-31T15:18:14;13.50;;;8.77;;
45206;SDS011;30950;53.086;21.576;2023-03-31T15:20:43;12.85;;;7.38;;
45206;SDS011;30950;53.086;21.576;2023-03-31T15:23:22;14.75;;;8.63;;
45206;SDS011;30950;53.086;21.576;2023-03-31T15:25:56;14.00;;;8.60;;
45206;SDS011;30950;53.086;21.576;2023-03-31T15:28:25;11.57;;;7.47;;
45206;SDS011;30950;53.086;21.576;2023-03-31T15:30:57;14.38;;;6.80;;
45206;SDS011;30950;53.086;21.576;2023-03-31T15:33:36;13.48;;;7.78;;
45206;SDS011;30950;53.086;21.576;2023-03-31T15:36:09;13.07;;;7.55;;
45206;SDS011;30950;53.086;21.576;2023-03-31T15:38:37;15.80;;;8.15;;
45206;SDS011;30950;53.086;21.576;2023-03-31T15:41:15;15.57;;;8.48;;
45206;SDS011;30950;53.086;21.576;2023-03-31T15:43:47;11.00;;;6.93;;
45206;SDS011;30950;53.086;21.576;2023-03-31T15:46:25;14.82;;;9.23;;
45206;SDS011;30950;53.086;21.576;2023-03-31T15:49:21;16.75;;;8.95;;
45206;SDS011;30950;53.086;21.576;2023-03-31T15:51:50;18.73;;;10.48;;
45206;SDS011;30950;53.086;21.576;2023-03-31T15:54:39;18.40;;;12.35;;
45206;SDS011;30950;53.086;21.576;2023-03-31T15:57:07;30.95;;;12.48;;
45206;SDS011;30950;53.086;21.576;2023-03-31T16:02:23;13.13;;;7.38;;
45206;SDS011;30950;53.086;21.576;2023-03-31T16:05:21;12.48;;;7.38;;
45206;SDS011;30950;53.086;21.576;2023-03-31T16:08:03;11.35;;;7.68;;
45206;SDS011;30950;53.086;21.576;2023-03-31T16:10:36;17.40;;;12.52;;
45206;SDS011;30950;53.086;21.576;2023-03-31T16:13:04;20.27;;;10.25;;
45206;SDS011;30950;53.086;21.576;2023-03-31T16:15:35;16.13;;;9.43;;
45206;SDS011;30950;53.086;21.576;2023-03-31T16:20:39;13.93;;;7.78;;
45206;SDS011;30950;53.086;21.576;2023-03-31T16:23:12;11.52;;;6.57;;
45206;SDS011;30950;53.086;21.576;2023-03-31T16:25:45;7.70;;;3.80;;
45206;SDS011;30950;53.086;21.576;2023-03-31T16:28:14;6.95;;;3.15;;
45206;SDS011;30950;53.086;21.576;2023-03-31T16:30:45;6.90;;;3.30;;
45206;SDS011;30950;53.086;21.576;2023-03-31T16:33:17;9.30;;;3.00;;
45206;SDS011;30950;53.086;21.576;2023-03-31T16:35:46;5.15;;;2.97;;
45206;SDS011;30950;53.086;21.576;2023-03-31T16:38:17;5.95;;;3.50;;
45206;SDS011;30950;53.086;21.576;2023-03-31T16:40:47;8.00;;;4.00;;
45206;SDS011;30950;53.086;21.576;2023-03-31T16:43:18;9.93;;;4.13;;
45206;SDS011;30950;53.086;21.576;2023-03-31T16:45:48;9.80;;;4.50;;
45206;SDS011;30950;53.086;21.576;2023-03-31T16:48:20;10.20;;;6.72;;
45206;SDS011;30950;53.086;21.576;2023-03-31T16:50:50;12.80;;;5.63;;
45206;SDS011;30950;53.086;21.576;2023-03-31T16:53:22;17.88;;;8.73;;
45206;SDS011;30950;53.086;21.576;2023-03-31T16:55:52;14.35;;;8.35;;
45206;SDS011;30950;53.086;21.576;2023-03-31T16:58:20;16.45;;;11.00;;
45206;SDS011;30950;53.086;21.576;2023-03-31T17:00:49;11.07;;;5.47;;
45206;SDS011;30950;53.086;21.576;2023-03-31T17:03:17;14.25;;;8.85;;
45206;SDS011;30950;53.086;21.576;2023-03-31T17:05:45;18.10;;;10.80;;
45206;SDS011;30950;53.086;21.576;2023-03-31T17:08:14;14.07;;;8.20;;
45206;SDS011;30950;53.086;21.576;2023-03-31T17:10:49;17.73;;;10.88;;
45206;SDS011;30950;53.086;21.576;2023-03-31T17:13:38;17.35;;;11.23;;
45206;SDS011;30950;53.086;21.576;2023-03-31T17:16:06;28.73;;;16.95;;
45206;SDS011;30950;53.086;21.576;2023-03-31T17:18:43;16.95;;;12.07;;
45206;SDS011;30950;53.086;21.576;2023-03-31T17:21:11;19.10;;;10.85;;
45206;SDS011;30950;53.086;21.576;2023-03-31T17:23:40;21.67;;;13.57;;